createdAt,value
2018-05-03T00:01:16.525Z,14.27
2018-05-03T00:03:42.396Z,13.27
2018-05-03T00:06:08.284Z,15.90
2018-05-03T00:08:34.133Z,16.10
2018-05-03T00:11:00.006Z,16.90
2018-05-03T00:13:25.856Z,13.77
2018-05-03T00:15:51.758Z,14.30
2018-05-03T00:18:17.733Z,13.53
2018-05-03T00:20:43.593Z,15.73
2018-05-03T00:23:09.449Z,13.53
2018-05-03T00:25:35.275Z,15.23
2018-05-03T00:28:01.103Z,16.03
2018-05-03T00:30:26.961Z,16.33
2018-05-03T00:32:52.808Z,16.80
2018-05-03T00:35:18.683Z,16.43
2018-05-03T00:37:44.532Z,19.73
2018-05-03T00:40:10.349Z,18.77
2018-05-03T00:42:36.208Z,18.47
2018-05-03T00:45:02.080Z,21.00
2018-05-03T00:47:27.966Z,19.03
2018-05-03T00:49:53.807Z,20.17
2018-05-03T00:52:19.672Z,21.30
2018-05-03T00:54:47.565Z,24.10
2018-05-03T00:57:13.470Z,22.67
2018-05-03T00:59:39.334Z,23.10
2018-05-03T01:02:05.213Z,23.43
2018-05-03T01:04:31.059Z,22.03
2018-05-03T01:06:56.888Z,24.90
2018-05-03T01:09:22.767Z,21.97
2018-05-03T01:11:48.644Z,23.90
2018-05-03T01:14:14.520Z,25.73
2018-05-03T01:16:40.393Z,24.63
2018-05-03T01:19:06.256Z,25.93
2018-05-03T01:21:32.114Z,25.93
2018-05-03T01:23:57.976Z,25.03
2018-05-03T01:26:23.805Z,27.60
2018-05-03T01:28:49.664Z,26.50
2018-05-03T01:31:15.532Z,23.67
2018-05-03T01:33:41.371Z,25.97
2018-05-03T01:36:19.628Z,25.90
2018-05-03T01:38:45.500Z,23.63
2018-05-03T01:41:11.369Z,26.30
2018-05-03T01:43:37.213Z,26.83
2018-05-03T01:46:03.091Z,25.20
2018-05-03T01:48:28.971Z,25.93
2018-05-03T01:50:54.848Z,25.60
2018-05-03T01:53:20.704Z,23.63
2018-05-03T01:55:46.560Z,27.07
2018-05-03T01:58:12.429Z,25.53
2018-05-03T02:00:38.314Z,24.27
2018-05-03T02:03:04.192Z,23.33
2018-05-03T02:05:30.049Z,22.73
2018-05-03T02:07:55.916Z,23.53
2018-05-03T02:10:21.745Z,23.10
2018-05-03T02:12:47.569Z,22.93
2018-05-03T02:15:13.429Z,22.13
2018-05-03T02:17:39.322Z,23.27
2018-05-03T02:20:05.180Z,23.43
2018-05-03T02:22:31.073Z,22.27
2018-05-03T02:24:56.933Z,23.80
2018-05-03T02:27:22.777Z,23.60
2018-05-03T02:29:48.629Z,23.30
2018-05-03T02:32:14.450Z,23.30
2018-05-03T02:34:40.359Z,25.43
2018-05-03T02:37:06.209Z,24.17
2018-05-03T02:39:32.063Z,22.47
2018-05-03T02:41:57.905Z,23.23
2018-05-03T02:44:23.780Z,23.57
2018-05-03T02:46:49.642Z,21.77
2018-05-03T02:49:15.475Z,23.30
2018-05-03T02:51:41.350Z,22.77
2018-05-03T02:54:07.209Z,20.83
2018-05-03T02:56:33.058Z,24.07
2018-05-03T02:59:11.393Z,21.03
2018-05-03T03:01:56.447Z,20.63
2018-05-03T03:04:40.862Z,19.97
2018-05-03T03:10:52.981Z,21.20
2018-05-03T03:13:35.272Z,21.63
2018-05-03T03:16:19.640Z,22.57
2018-05-03T03:19:04.105Z,22.00
2018-05-03T03:21:48.639Z,23.63
2018-05-03T03:24:33.071Z,22.10
2018-05-03T03:30:31.940Z,22.43
2018-05-03T03:33:10.109Z,23.60
2018-05-03T03:39:05.236Z,24.53
2018-05-03T03:41:37.196Z,26.00
2018-05-03T03:44:15.431Z,25.13
2018-05-03T03:46:42.221Z,25.93
2018-05-03T03:49:08.520Z,25.23
2018-05-03T03:51:34.399Z,28.23
2018-05-03T03:54:00.239Z,27.60
2018-05-03T03:56:26.097Z,25.43
2018-05-03T03:58:51.925Z,26.73
2018-05-03T04:01:17.777Z,28.27
2018-05-03T04:03:43.641Z,27.70
2018-05-03T04:06:09.508Z,30.97
2018-05-03T04:08:35.347Z,28.37
2018-05-03T04:11:01.209Z,29.03
2018-05-03T04:13:27.104Z,27.80
2018-05-03T04:15:52.976Z,28.00
2018-05-03T04:18:31.127Z,27.67
2018-05-03T04:21:09.182Z,25.77
2018-05-03T04:23:47.305Z,27.27
2018-05-03T04:26:13.158Z,29.30
2018-05-03T04:28:39.041Z,26.43
2018-05-03T04:31:04.897Z,28.70
2018-05-03T04:33:30.776Z,29.17
2018-05-03T04:35:56.586Z,26.87
2018-05-03T04:38:22.456Z,27.47
2018-05-03T04:40:48.316Z,26.37
2018-05-03T04:43:14.152Z,28.57
2018-05-03T04:45:40.025Z,27.13
2018-05-03T04:48:05.855Z,29.43
2018-05-03T04:50:31.830Z,26.53
2018-05-03T04:52:57.699Z,25.23
2018-05-03T04:55:23.585Z,24.67
2018-05-03T04:57:49.413Z,27.37
2018-05-03T05:00:15.298Z,25.57
2018-05-03T05:02:41.141Z,23.83
2018-05-03T05:05:06.968Z,24.53
2018-05-03T05:07:32.829Z,28.07
2018-05-03T05:09:58.711Z,24.77
2018-05-03T05:12:24.593Z,26.83
2018-05-03T05:14:50.456Z,25.80
2018-05-03T05:17:16.325Z,25.93
2018-05-03T05:19:42.185Z,26.63
2018-05-03T05:22:08.040Z,24.60
2018-05-03T05:24:33.882Z,26.73
2018-05-03T05:26:59.759Z,24.60
2018-05-03T05:29:25.643Z,22.17
2018-05-03T05:31:51.493Z,24.70
2018-05-03T05:34:17.360Z,22.87
2018-05-03T05:36:43.211Z,22.90
2018-05-03T05:39:09.097Z,23.40
2018-05-03T05:41:34.960Z,21.70
2018-05-03T05:44:00.883Z,19.50
2018-05-03T05:46:26.725Z,21.67
2018-05-03T05:48:52.580Z,20.80
2018-05-03T05:51:18.452Z,19.30
2018-05-03T05:53:44.307Z,20.67
2018-05-03T05:56:10.161Z,20.10
2018-05-03T05:58:35.984Z,21.10
2018-05-03T06:01:01.846Z,22.50
2018-05-03T06:03:27.665Z,18.77
2018-05-03T06:05:53.533Z,19.60
2018-05-03T06:08:19.364Z,18.93
2018-05-03T06:10:45.243Z,18.33
2018-05-03T06:13:11.096Z,17.90
2018-05-03T06:15:36.984Z,19.73
2018-05-03T06:18:02.856Z,19.00
2018-05-03T06:20:28.713Z,19.73
2018-05-03T06:22:54.564Z,21.03
2018-05-03T06:25:20.408Z,21.90
2018-05-03T06:27:46.263Z,20.40
2018-05-03T06:30:12.111Z,19.53
2018-05-03T06:32:37.994Z,19.77
2018-05-03T06:35:03.926Z,20.17
2018-05-03T06:37:29.785Z,20.00
2018-05-03T06:39:55.652Z,20.00
2018-05-03T06:42:21.511Z,20.00
2018-05-03T06:44:47.381Z,19.10
2018-05-03T06:47:13.269Z,16.53
2018-05-03T06:49:39.110Z,17.63
2018-05-03T06:52:04.987Z,16.47
2018-05-03T06:54:30.837Z,14.27
2018-05-03T06:56:56.680Z,16.33
2018-05-03T06:59:22.538Z,14.43
2018-05-03T07:01:48.380Z,13.83
2018-05-03T07:04:14.276Z,12.90
2018-05-03T07:06:40.095Z,12.87
2018-05-03T07:09:05.932Z,13.93
2018-05-03T07:11:31.817Z,12.77
2018-05-03T07:13:57.693Z,14.57
2018-05-03T07:16:23.616Z,11.30
2018-05-03T07:18:49.401Z,11.97
2018-05-03T07:21:15.245Z,12.30
2018-05-03T07:23:41.112Z,11.77
2018-05-03T07:26:07.013Z,12.57
2018-05-03T07:28:32.837Z,16.20
2018-05-03T07:30:58.724Z,13.70
2018-05-03T07:33:24.593Z,14.00
2018-05-03T07:35:50.481Z,12.67
2018-05-03T07:38:16.332Z,13.93
2018-05-03T07:40:42.259Z,12.87
2018-05-03T07:43:08.031Z,13.73
2018-05-03T07:45:33.873Z,14.00
2018-05-03T07:47:59.707Z,12.90
2018-05-03T07:50:25.569Z,12.40
2018-05-03T07:52:51.425Z,13.00
2018-05-03T07:55:17.295Z,13.87
2018-05-03T07:57:43.140Z,13.40
2018-05-03T08:00:09.007Z,14.17
2018-05-03T08:02:34.864Z,14.40
2018-05-03T08:05:00.745Z,12.43
2018-05-03T08:07:26.594Z,11.83
2018-05-03T08:09:52.438Z,12.60
2018-05-03T08:12:18.284Z,14.47
2018-05-03T08:14:44.095Z,12.20
2018-05-03T08:17:10.054Z,14.97
2018-05-03T08:19:35.801Z,13.53
2018-05-03T08:22:01.653Z,11.80
2018-05-03T08:24:27.511Z,11.60
2018-05-03T08:26:53.347Z,11.30
2018-05-03T08:29:19.193Z,12.90
2018-05-03T08:31:45.037Z,10.63
2018-05-03T08:34:10.909Z,9.30
2018-05-03T08:36:36.809Z,10.90
2018-05-03T08:39:02.735Z,10.40
2018-05-03T08:41:28.601Z,11.70
2018-05-03T08:43:54.492Z,11.17
2018-05-03T08:46:20.341Z,8.90
2018-05-03T08:48:46.213Z,8.07
2018-05-03T08:51:12.044Z,8.40
2018-05-03T08:53:37.908Z,9.00
2018-05-03T08:56:03.781Z,11.10
2018-05-03T08:58:29.605Z,9.87
2018-05-03T09:00:55.506Z,11.90
2018-05-03T09:03:21.319Z,11.10
2018-05-03T09:05:47.157Z,8.47
2018-05-03T09:08:13.008Z,13.00
2018-05-03T09:10:38.849Z,8.97
2018-05-03T09:13:04.693Z,10.40
2018-05-03T09:15:30.541Z,10.97
2018-05-03T09:17:56.424Z,8.83
2018-05-03T09:20:22.269Z,9.80
2018-05-03T09:22:48.156Z,10.00
2018-05-03T09:25:13.985Z,10.03
2018-05-03T09:27:39.893Z,7.83
2018-05-03T09:30:05.709Z,7.80
2018-05-03T09:32:31.529Z,8.03
2018-05-03T09:34:57.369Z,7.60
2018-05-03T09:37:23.221Z,8.43
2018-05-03T09:39:49.069Z,6.60
2018-05-03T09:42:14.916Z,6.50
2018-05-03T09:44:40.840Z,8.03
2018-05-03T09:47:06.608Z,7.60
2018-05-03T09:49:32.432Z,12.00
2018-05-03T09:51:58.267Z,8.53
2018-05-03T09:54:24.089Z,9.77
2018-05-03T09:56:49.941Z,6.30
2018-05-03T09:59:15.773Z,11.97
2018-05-03T10:01:41.673Z,5.83
2018-05-03T10:04:07.569Z,5.33
2018-05-03T10:06:33.430Z,5.80
2018-05-03T10:08:59.267Z,7.70
2018-05-03T10:11:25.105Z,8.10
2018-05-03T10:13:50.946Z,6.87
2018-05-03T10:16:16.824Z,6.17
2018-05-03T10:18:42.664Z,6.07
2018-05-03T10:21:08.530Z,6.97
2018-05-03T10:23:34.356Z,8.60
2018-05-03T10:26:00.220Z,7.93
2018-05-03T10:28:26.073Z,6.23
2018-05-03T10:30:51.920Z,7.00
2018-05-03T10:33:17.759Z,7.20
2018-05-03T10:35:43.703Z,8.83
2018-05-03T10:38:09.491Z,5.80
2018-05-03T10:40:35.328Z,13.77
2018-05-03T10:43:01.213Z,10.53
2018-05-03T10:45:27.076Z,7.87
2018-05-03T10:47:52.927Z,7.63
2018-05-03T10:50:18.767Z,10.17
2018-05-03T10:52:44.648Z,7.00
2018-05-03T10:55:10.496Z,6.10
2018-05-03T10:57:36.368Z,11.10
2018-05-03T11:00:02.273Z,7.07
2018-05-03T11:02:28.104Z,7.10
2018-05-03T11:04:53.916Z,10.73
2018-05-03T11:07:19.794Z,6.07
2018-05-03T11:09:45.633Z,8.37
2018-05-03T11:12:11.495Z,11.83
2018-05-03T11:14:37.353Z,7.67
2018-05-03T11:17:03.211Z,7.30
2018-05-03T11:19:29.074Z,7.53
2018-05-03T11:21:54.922Z,8.67
2018-05-03T11:24:20.776Z,8.27
2018-05-03T11:26:46.605Z,8.83
2018-05-03T11:29:12.481Z,7.63
2018-05-03T11:31:38.362Z,8.17
2018-05-03T11:34:04.273Z,9.60
2018-05-03T11:36:30.140Z,7.93
2018-05-03T11:38:55.981Z,7.67
2018-05-03T11:41:21.856Z,8.80
2018-05-03T11:43:47.730Z,10.50
2018-05-03T11:46:13.620Z,10.37
2018-05-03T11:48:39.456Z,8.63
2018-05-03T11:51:05.400Z,11.20
2018-05-03T11:53:31.280Z,9.53
2018-05-03T11:55:57.131Z,9.80
2018-05-03T11:58:22.984Z,8.83
2018-05-03T12:00:48.876Z,7.70
2018-05-03T12:03:14.733Z,9.17
2018-05-03T12:05:40.613Z,7.50
2018-05-03T12:08:06.456Z,8.33
2018-05-03T12:10:32.291Z,7.50
2018-05-03T12:12:58.149Z,8.10
2018-05-03T12:15:23.985Z,9.03
2018-05-03T12:17:49.831Z,9.50
2018-05-03T12:20:15.683Z,17.60
2018-05-03T12:22:41.550Z,7.43
2018-05-03T12:25:07.393Z,8.87
2018-05-03T12:27:33.238Z,7.80
2018-05-03T12:29:59.065Z,6.40
2018-05-03T12:32:24.918Z,7.30
2018-05-03T12:34:50.852Z,8.07
2018-05-03T12:37:16.613Z,7.33
2018-05-03T12:39:42.450Z,5.80
2018-05-03T12:42:08.284Z,6.13
2018-05-03T12:44:34.145Z,7.53
2018-05-03T12:46:59.995Z,7.50
2018-05-03T12:49:25.884Z,7.00
2018-05-03T12:51:51.830Z,8.33
2018-05-03T12:54:17.626Z,7.70
2018-05-03T12:56:43.490Z,7.27
2018-05-03T12:59:09.373Z,10.53
2018-05-03T13:01:35.253Z,7.13
2018-05-03T13:04:01.124Z,8.70
2018-05-03T13:06:26.995Z,9.97
2018-05-03T13:08:52.829Z,8.47
2018-05-03T13:11:18.686Z,10.13
2018-05-03T13:13:44.525Z,12.50
2018-05-03T13:16:10.401Z,6.73
2018-05-03T13:18:36.293Z,10.00
2018-05-03T13:21:02.165Z,8.27
2018-05-03T13:23:28.030Z,8.20
2018-05-03T13:25:53.992Z,9.77
2018-05-03T13:28:19.845Z,9.57
2018-05-03T13:30:45.690Z,7.67
2018-05-03T13:33:11.529Z,7.30
2018-05-03T13:35:37.354Z,8.00
2018-05-03T13:38:03.204Z,7.00
2018-05-03T13:40:29.042Z,6.23
2018-05-03T13:42:54.920Z,6.17
2018-05-03T13:45:20.778Z,12.00
2018-05-03T13:47:46.659Z,8.80
2018-05-03T13:50:12.502Z,7.60
2018-05-03T13:52:38.369Z,6.77
2018-05-03T13:55:04.377Z,6.20
2018-05-03T13:57:30.247Z,6.50
2018-05-03T13:59:56.111Z,6.57
2018-05-03T14:02:21.975Z,5.03
2018-05-03T14:04:47.844Z,5.17
2018-05-03T14:07:13.750Z,8.13
2018-05-03T14:09:39.614Z,4.97
2018-05-03T14:12:05.472Z,6.20
2018-05-03T14:14:31.357Z,8.07
2018-05-03T14:16:57.251Z,4.87
2018-05-03T14:19:23.090Z,9.17
2018-05-03T14:21:48.936Z,6.90
2018-05-03T14:24:14.773Z,6.87
2018-05-03T14:26:40.621Z,7.07
2018-05-03T14:29:06.483Z,7.50
2018-05-03T14:31:32.345Z,8.93
2018-05-03T14:33:58.185Z,9.27
2018-05-03T14:36:23.959Z,7.90
2018-05-03T14:38:49.849Z,6.90
2018-05-03T14:41:15.741Z,7.63
2018-05-03T14:43:41.586Z,7.10
2018-05-03T14:46:07.475Z,7.63
2018-05-03T14:48:35.843Z,9.37
2018-05-03T14:51:05.043Z,7.53
2018-05-03T14:53:33.629Z,6.90
2018-05-03T14:56:01.906Z,7.67
2018-05-03T14:58:29.985Z,6.83
2018-05-03T15:00:58.481Z,7.53
2018-05-03T15:03:27.015Z,7.47
2018-05-03T15:05:56.111Z,7.40
2018-05-03T15:08:24.729Z,7.20
2018-05-03T15:10:50.741Z,9.90
2018-05-03T15:13:16.676Z,7.73
2018-05-03T15:15:42.517Z,7.53
2018-05-03T15:18:08.440Z,7.23
2018-05-03T15:20:34.301Z,8.00
2018-05-03T15:23:00.194Z,7.90
2018-05-03T15:25:26.082Z,7.00
2018-05-03T15:27:51.965Z,5.63
2018-05-03T15:30:17.864Z,6.90
2018-05-03T15:32:43.757Z,7.27
2018-05-03T15:35:09.682Z,10.53
2018-05-03T15:37:35.601Z,7.83
2018-05-03T15:40:01.485Z,7.37
2018-05-03T15:42:27.392Z,7.17
2018-05-03T15:44:53.362Z,9.07
2018-05-03T15:47:19.201Z,8.33
2018-05-03T15:49:45.184Z,8.27
2018-05-03T15:52:11.165Z,9.33
2018-05-03T15:54:37.025Z,9.07
2018-05-03T15:57:02.937Z,8.97
2018-05-03T15:59:28.855Z,9.13
2018-05-03T16:01:54.708Z,9.30
2018-05-03T16:04:20.548Z,13.10
2018-05-03T16:06:46.426Z,10.00
2018-05-03T16:09:12.317Z,10.20
2018-05-03T16:11:38.180Z,9.80
2018-05-03T16:14:04.053Z,10.03
2018-05-03T16:16:29.910Z,11.10
2018-05-03T16:18:55.844Z,11.23
2018-05-03T16:21:21.710Z,10.67
2018-05-03T16:23:47.575Z,11.90
2018-05-03T16:26:13.402Z,11.27
2018-05-03T16:28:39.274Z,12.00
2018-05-03T16:31:05.233Z,12.30
2018-05-03T16:33:31.112Z,10.53
2018-05-03T16:35:56.965Z,11.30
2018-05-03T16:38:22.799Z,11.30
2018-05-03T16:40:48.755Z,12.13
2018-05-03T16:43:14.537Z,10.63
2018-05-03T16:45:40.446Z,14.50
2018-05-03T16:48:06.263Z,10.67
2018-05-03T16:50:32.104Z,10.87
2018-05-03T16:52:57.975Z,13.97
2018-05-03T16:55:23.873Z,14.30
2018-05-03T16:57:49.729Z,16.97
2018-05-03T17:00:15.701Z,14.37
2018-05-03T17:02:41.569Z,14.10
2018-05-03T17:05:07.446Z,13.90
2018-05-03T17:07:33.330Z,12.97
2018-05-03T17:09:59.187Z,14.13
2018-05-03T17:12:25.059Z,15.20
2018-05-03T17:14:50.924Z,14.03
2018-05-03T17:17:16.857Z,17.23
2018-05-03T17:19:42.742Z,15.20
2018-05-03T17:22:08.598Z,13.13
2018-05-03T17:24:34.487Z,13.40
2018-05-03T17:27:00.413Z,17.23
2018-05-03T17:29:26.240Z,18.47
2018-05-03T17:31:52.085Z,19.23
2018-05-03T17:34:17.956Z,19.30
2018-05-03T17:36:43.851Z,18.07
2018-05-03T17:39:09.812Z,20.07
2018-05-03T17:41:35.653Z,20.57
2018-05-03T17:44:01.530Z,19.80
2018-05-03T17:46:27.371Z,17.80
2018-05-03T17:48:53.256Z,20.13
2018-05-03T17:51:19.223Z,24.10
2018-05-03T17:53:45.041Z,22.27
2018-05-03T17:56:10.935Z,21.20
2018-05-03T17:58:36.832Z,19.00
2018-05-03T18:01:02.773Z,19.90
2018-05-03T18:03:28.667Z,21.30
2018-05-03T18:05:54.548Z,20.20
2018-05-03T18:08:20.468Z,17.13
2018-05-03T18:10:46.354Z,21.97
2018-05-03T18:13:12.346Z,20.20
2018-05-03T18:15:38.248Z,21.63
2018-05-03T18:18:04.130Z,21.37
2018-05-03T18:20:30.014Z,20.53
2018-05-03T18:22:55.953Z,18.70
2018-05-03T18:25:21.844Z,18.63
2018-05-03T18:27:47.735Z,17.83
2018-05-03T18:30:13.615Z,17.87
2018-05-03T18:32:39.552Z,19.93
2018-05-03T18:35:05.425Z,16.97
2018-05-03T18:37:31.301Z,18.17
2018-05-03T18:39:57.189Z,17.47
2018-05-03T18:42:23.044Z,16.77
2018-05-03T18:44:48.873Z,18.30
2018-05-03T18:47:14.782Z,16.90
2018-05-03T18:49:40.646Z,17.37
2018-05-03T18:52:06.511Z,17.40
2018-05-03T18:54:32.413Z,18.33
2018-05-03T18:56:58.259Z,16.93
2018-05-03T18:59:24.127Z,16.47
2018-05-03T19:01:50.005Z,15.50
2018-05-03T19:04:15.929Z,16.40
2018-05-03T19:06:41.810Z,14.80
2018-05-03T19:09:07.716Z,14.87
2018-05-03T19:11:33.883Z,13.87
2018-05-03T19:13:59.789Z,14.97
2018-05-03T19:16:25.697Z,13.93
2018-05-03T19:18:51.584Z,13.07
2018-05-03T19:21:17.445Z,15.70
2018-05-03T19:23:43.407Z,14.33
2018-05-03T19:26:09.218Z,15.37
2018-05-03T19:28:35.103Z,15.30
2018-05-03T19:31:01.040Z,17.97
2018-05-03T19:33:26.936Z,14.17
2018-05-03T19:35:52.777Z,14.53
2018-05-03T19:38:18.654Z,11.73
2018-05-03T19:40:44.553Z,16.03
2018-05-03T19:43:10.458Z,18.33
2018-05-03T19:45:36.396Z,15.13
2018-05-03T19:48:02.282Z,15.53
2018-05-03T19:50:28.202Z,15.83
2018-05-03T19:52:54.051Z,15.70
2018-05-03T19:55:19.927Z,13.63
2018-05-03T19:57:45.754Z,12.73
2018-05-03T20:00:11.617Z,15.00
2018-05-03T20:02:44.336Z,17.13
2018-05-03T20:05:10.192Z,17.73
2018-05-03T20:07:36.074Z,14.13
2018-05-03T20:10:01.983Z,13.80
2018-05-03T20:12:27.960Z,14.33
2018-05-03T20:14:53.867Z,13.10
2018-05-03T20:17:19.778Z,14.13
2018-05-03T20:19:45.668Z,12.20
2018-05-03T20:22:11.555Z,12.70
2018-05-03T20:24:37.402Z,13.57
2018-05-03T20:27:03.264Z,13.87
2018-05-03T20:29:29.140Z,14.07
2018-05-03T20:31:55.000Z,12.90
2018-05-03T20:34:20.874Z,12.87
2018-05-03T20:36:46.702Z,12.93
2018-05-03T20:39:12.606Z,12.00
2018-05-03T20:41:38.446Z,13.47
2018-05-03T20:44:04.304Z,11.57
2018-05-03T20:46:30.152Z,16.30
2018-05-03T20:48:56.000Z,12.80
2018-05-03T20:51:21.841Z,12.60
2018-05-03T20:53:47.713Z,13.10
2018-05-03T20:56:13.603Z,14.37
2018-05-03T20:58:39.441Z,14.07
2018-05-03T21:01:05.284Z,13.00
2018-05-03T21:03:31.144Z,15.73
2018-05-03T21:05:57.022Z,12.40
2018-05-03T21:08:22.870Z,11.70
2018-05-03T21:10:48.712Z,13.80
2018-05-03T21:13:14.579Z,14.97
2018-05-03T21:15:40.451Z,11.30
2018-05-03T21:18:06.326Z,15.63
2018-05-03T21:20:32.157Z,11.80
2018-05-03T21:22:58.001Z,12.17
2018-05-03T21:25:23.829Z,12.60
2018-05-03T21:27:49.665Z,12.37
2018-05-03T21:30:15.518Z,13.10
2018-05-03T21:32:41.396Z,11.50
2018-05-03T21:35:07.232Z,11.70
2018-05-03T21:37:33.181Z,12.77
2018-05-03T21:39:58.964Z,11.67
2018-05-03T21:42:24.777Z,13.77
2018-05-03T21:44:50.612Z,14.43
2018-05-03T21:47:16.452Z,13.50
2018-05-03T21:49:42.297Z,12.10
2018-05-03T21:52:08.236Z,14.17
2018-05-03T21:54:34.100Z,11.57
2018-05-03T21:56:59.951Z,11.30
2018-05-03T21:59:25.812Z,11.87
2018-05-03T22:01:51.661Z,11.23
2018-05-03T22:04:17.536Z,10.53
2018-05-03T22:06:43.366Z,11.33
2018-05-03T22:09:09.269Z,11.27
2018-05-03T22:11:35.092Z,11.23
2018-05-03T22:14:01.045Z,10.80
2018-05-03T22:16:26.804Z,11.17
2018-05-03T22:18:52.671Z,11.60
2018-05-03T22:21:18.537Z,11.97
2018-05-03T22:23:44.378Z,13.53
2018-05-03T22:26:10.232Z,14.93
2018-05-03T22:28:36.058Z,13.87
2018-05-03T22:31:01.921Z,11.60
2018-05-03T22:33:27.778Z,13.47
2018-05-03T22:35:53.632Z,9.77
2018-05-03T22:38:19.501Z,11.10
2018-05-03T22:40:45.401Z,12.07
2018-05-03T22:43:11.225Z,12.20
2018-05-03T22:45:37.092Z,10.60
2018-05-03T22:48:02.950Z,12.83
2018-05-03T22:50:28.769Z,10.37
2018-05-03T22:52:54.605Z,9.00
2018-05-03T22:55:20.469Z,9.47
2018-05-03T22:57:46.330Z,10.30
2018-05-03T23:00:12.212Z,10.77
2018-05-03T23:02:38.061Z,9.53
2018-05-03T23:05:03.902Z,9.43
2018-05-03T23:07:29.773Z,10.50
2018-05-03T23:09:55.675Z,11.53
2018-05-03T23:12:21.553Z,10.57
2018-05-03T23:14:47.405Z,11.57
2018-05-03T23:17:13.265Z,11.07
2018-05-03T23:19:39.161Z,10.87
2018-05-03T23:22:05.013Z,10.30
2018-05-03T23:24:30.860Z,12.90
2018-05-03T23:26:56.725Z,10.33
2018-05-03T23:29:22.552Z,10.10
2018-05-03T23:31:48.386Z,12.23
2018-05-03T23:34:14.249Z,10.23
2018-05-03T23:36:40.094Z,10.20
2018-05-03T23:39:05.917Z,9.03
2018-05-03T23:41:31.784Z,10.97
2018-05-03T23:43:57.637Z,13.07
2018-05-03T23:46:23.480Z,9.47
2018-05-03T23:48:49.344Z,9.60
2018-05-03T23:51:15.208Z,10.00
2018-05-03T23:53:41.052Z,9.43
2018-05-03T23:56:06.890Z,9.17
2018-05-03T23:58:32.713Z,11.77
